createdAt,value
2023-01-02T06:49:21.069Z,12.60
2023-01-02T06:52:22.767Z,12.80
2023-01-02T06:55:24.422Z,13.10
2023-01-02T06:58:28.972Z,13.20
2023-01-02T07:01:31.046Z,13.20
2023-01-02T07:04:32.754Z,13.10
2023-01-02T07:07:34.405Z,13.10
2023-01-02T07:10:36.354Z,13.10
2023-01-02T07:13:39.294Z,13.10
2023-01-02T07:16:41.008Z,13.10
2023-01-02T07:19:44.309Z,13.00
2023-01-02T07:22:51.915Z,13.00
2023-01-02T07:25:55.240Z,13.00
2023-01-02T07:28:56.897Z,13.10
2023-01-02T07:31:58.595Z,13.10
2023-01-02T07:35:00.345Z,13.10
2023-01-02T07:38:02.273Z,13.00
2023-01-02T07:41:04.156Z,13.00
2023-01-02T07:44:05.851Z,13.00
2023-01-02T07:47:07.515Z,13.10
2023-01-02T07:50:09.603Z,13.10
2023-01-02T07:53:11.252Z,13.10
2023-01-02T07:56:13.012Z,13.20
2023-01-02T07:59:14.681Z,13.10
2023-01-02T08:02:16.507Z,13.10
2023-01-02T08:05:18.349Z,13.10
2023-01-02T08:08:20.325Z,13.20
2023-01-02T08:11:22.970Z,13.20
2023-01-02T08:14:24.636Z,13.20
2023-01-02T08:17:26.287Z,13.10
2023-01-02T08:20:28.273Z,13.10
2023-01-02T08:23:30.299Z,13.20
2023-01-02T08:26:31.954Z,13.20
2023-01-02T08:29:33.608Z,13.30
2023-01-02T08:32:37.303Z,13.40
2023-01-02T08:35:39.365Z,13.50
2023-01-02T08:38:41.109Z,13.50
2023-01-02T08:41:42.795Z,13.50
2023-01-02T08:44:44.693Z,13.50
2023-01-02T08:47:46.361Z,13.50
2023-01-02T08:50:49.378Z,13.50
2023-01-02T08:53:51.500Z,13.50
2023-01-02T08:56:53.346Z,13.50
2023-01-02T08:59:55.000Z,13.60
2023-01-02T09:02:57.026Z,13.90
2023-01-02T09:05:58.749Z,14.10
2023-01-02T09:09:03.240Z,14.30
2023-01-02T09:12:09.221Z,14.90
2023-01-02T09:15:11.637Z,15.80
2023-01-02T09:18:13.284Z,16.90
2023-01-02T09:21:15.010Z,18.00
2023-01-02T09:24:16.728Z,19.00
2023-01-02T09:27:18.612Z,18.60
2023-01-02T09:30:20.476Z,19.00
2023-01-02T09:33:22.466Z,18.50
2023-01-02T09:36:24.209Z,18.20
2023-01-02T09:39:32.174Z,18.10
2023-01-02T09:42:34.856Z,17.60
2023-01-02T09:45:40.987Z,16.80
2023-01-02T09:48:43.156Z,16.70
2023-01-02T09:51:45.048Z,16.70
2023-01-02T09:54:46.761Z,16.80
2023-01-02T09:58:00.221Z,16.70
2023-01-02T10:01:03.048Z,16.80
2023-01-02T10:04:32.470Z,16.80
2023-01-02T10:07:45.637Z,16.90
2023-01-02T10:10:57.806Z,17.00
2023-01-02T10:14:18.889Z,16.80
2023-01-02T10:17:22.990Z,17.20
2023-01-02T10:20:30.323Z,17.50
2023-01-02T10:23:46.807Z,17.30
2023-01-02T10:26:53.414Z,16.80
2023-01-02T10:30:07.177Z,16.80
2023-01-02T10:33:18.529Z,17.00
2023-01-02T10:36:30.575Z,17.10
2023-01-02T10:39:33.140Z,17.10
2023-01-02T10:42:34.801Z,17.80
2023-01-02T10:45:36.603Z,18.20
2023-01-02T10:48:39.124Z,19.20
2023-01-02T10:51:48.165Z,19.40
2023-01-02T10:54:59.475Z,19.30
2023-01-02T10:58:04.982Z,19.90
2023-01-02T11:01:13.633Z,19.00
2023-01-02T11:04:22.463Z,19.00
2023-01-02T11:07:25.963Z,18.50
2023-01-02T11:10:30.969Z,18.60
2023-01-02T11:13:48.865Z,18.40
2023-01-02T11:16:58.457Z,18.40
2023-01-02T11:20:00.257Z,18.60
2023-01-02T11:23:03.899Z,18.30
2023-01-02T11:26:10.468Z,18.90
2023-01-02T11:29:29.106Z,18.70
2023-01-02T11:32:38.833Z,18.50
2023-01-02T11:35:48.783Z,18.30
2023-01-02T11:38:56.557Z,17.90
2023-01-02T11:42:31.052Z,17.40
2023-01-02T11:45:34.076Z,17.40
2023-01-02T11:48:36.835Z,17.60
2023-01-02T11:51:40.349Z,17.50
2023-01-02T11:54:49.743Z,17.60
2023-01-02T11:58:14.702Z,17.00
2023-01-02T12:01:45.087Z,16.90
2023-01-02T12:04:46.788Z,16.90
2023-01-02T12:07:55.633Z,16.80
2023-01-02T12:11:26.273Z,16.70
2023-01-02T12:14:59.706Z,16.60
2023-01-02T12:18:24.814Z,16.20
2023-01-02T12:21:42.559Z,16.10
2023-01-02T12:25:14.866Z,16.40
2023-01-02T12:28:45.971Z,16.30
2023-01-02T12:32:06.417Z,16.60
2023-01-02T12:35:48.564Z,16.40
2023-01-02T12:39:28.620Z,16.60
2023-01-02T12:42:57.275Z,16.70
2023-01-02T12:46:28.062Z,16.80
2023-01-02T12:50:09.618Z,16.70
2023-01-02T12:53:39.514Z,16.50
2023-01-02T12:56:59.272Z,16.20
2023-01-02T13:00:28.076Z,16.30
2023-01-02T13:04:00.166Z,16.30
2023-01-02T13:07:28.653Z,16.20
2023-01-02T13:10:30.631Z,16.20
2023-01-02T13:13:35.722Z,16.40
2023-01-02T13:16:39.938Z,16.50
2023-01-02T13:19:55.090Z,16.10
2023-01-02T13:23:28.497Z,16.00
2023-01-02T13:26:32.444Z,16.10
2023-01-02T13:29:43.577Z,15.80
2023-01-02T13:32:47.851Z,15.70
2023-01-02T13:35:49.990Z,15.70
2023-01-02T13:38:58.336Z,15.60
2023-01-02T13:42:23.775Z,15.40
2023-01-02T13:45:30.992Z,15.40
2023-01-02T13:48:38.479Z,15.10
2023-01-02T13:51:40.204Z,14.90
2023-01-02T13:55:10.718Z,15.00
2023-01-02T13:58:14.806Z,14.90
2023-01-02T14:01:24.061Z,15.00
2023-01-02T14:04:31.984Z,15.10
2023-01-02T14:07:33.716Z,14.90
2023-01-02T14:10:40.416Z,15.10
2023-01-02T14:13:46.652Z,14.80
2023-01-02T14:17:28.728Z,14.50
2023-01-02T14:20:34.885Z,14.40
2023-01-02T14:23:42.723Z,14.40
2023-01-02T14:27:17.239Z,14.40
2023-01-02T14:30:29.620Z,14.20
2023-01-02T14:33:34.138Z,14.20
2023-01-02T14:36:43.033Z,14.10
2023-01-02T14:39:44.758Z,14.00
2023-01-02T14:43:14.354Z,13.50
2023-01-02T14:46:21.432Z,13.30
2023-01-02T14:49:27.125Z,13.30
2023-01-02T14:52:37.740Z,12.90
2023-01-02T14:55:42.265Z,12.90
2023-01-02T14:58:47.142Z,13.00
2023-01-02T15:01:52.442Z,13.00
2023-01-02T15:05:06.095Z,12.80
2023-01-02T15:08:13.221Z,12.90
2023-01-02T15:11:41.601Z,12.90
2023-01-02T15:14:43.984Z,12.90
2023-01-02T15:17:47.775Z,12.90
2023-01-02T15:20:51.368Z,12.90
2023-01-02T15:23:54.524Z,12.80
2023-01-02T15:27:14.212Z,12.70
2023-01-02T15:30:24.803Z,12.60
2023-01-02T15:33:31.435Z,12.60
2023-01-02T15:36:37.701Z,12.60
2023-01-02T15:39:42.462Z,12.60
2023-01-02T15:43:04.836Z,12.60
2023-01-02T15:46:06.921Z,12.70
2023-01-02T15:49:13.938Z,12.60
2023-01-02T15:52:22.803Z,12.60
2023-01-02T15:55:25.539Z,12.50
2023-01-02T15:58:30.446Z,12.50
2023-01-02T16:01:32.321Z,12.60
2023-01-02T16:04:34.696Z,12.70
2023-01-02T16:07:38.538Z,12.70
2023-01-02T16:10:50.856Z,12.80
2023-01-02T16:14:18.432Z,12.80
2023-01-02T16:17:29.682Z,12.70
2023-01-02T16:20:31.659Z,12.80
2023-01-02T16:23:33.580Z,12.80
2023-01-02T16:26:40.418Z,12.70
2023-01-02T16:29:43.672Z,12.60
2023-01-02T16:32:48.414Z,12.60
2023-01-02T16:36:00.595Z,12.60
2023-01-02T16:39:03.090Z,12.60
2023-01-02T16:42:24.751Z,12.50
2023-01-02T16:45:27.911Z,12.60
2023-01-02T16:48:30.546Z,12.60
2023-01-02T16:51:32.518Z,12.50
2023-01-02T16:54:34.298Z,12.50
2023-01-02T16:57:35.940Z,12.40
